Information for Sharm El Sheikh

back to airport list

ICAO Code:HESH Country:Egypt
Airport Name:Sharm El Sheikh Is Hub:No
Latitude:27.9792 Longitude:34.3935
Scheduled Departures:0 Scheduled Arrivals:0
Total Past Departures:1 Total Past Arrivals:1
Pilots Based:0 Current Pilot Location:0
HESH 221800Z 36014KT CAVOK 20/03 Q1016 NOSIG


Nearby Destination Airports

ICAO Airport Country GC Distance View
HECA Cairo International Airport Egypt 203 NM View Airport Page
LLBG Ben Gurion Tel Aviv Israel 243 NM View Airport Page


+ Show Timetable

Scheduled Departures from HESH

Flight To Destination Days Dep. Time Aircraft Info
No Scheduled Departures!


Scheduled Arrivals to HESH

Flight From Origin Days Arr. Time Aircraft Info
No Scheduled Arrivals!
+ Show Recent Flight Info

Recent Departures from HESH

Flight To Destination Pilot Flighttime Landingrate Aircraft View
ASX304C EPWA Warszawa Chopina Rafal Piotrowski 4.03 -346 ft/m A320 View Report


Recent Arrivals to HESH

Flight From Origin Pilot Flighttime Landingrate Aircraft View
ASX301C EPKK Krakow im. Jana Pawla II Rafal Piotrowski 3.52 -246 ft/m A320 View Report
+ Show Pilot Information

Pilots based at HESH

Avatar Pilot ID Name Location Rank View Profile
No Pilots are based at this airport!


Pilots currently at HESH

Avatar Pilot ID Name Location Rank On Location since View Profile
Currently there are no pilots at this airport!
- Hide Map